Time;durP1;ratioP1;P1;durP2;ratioP2;P2;SDS_P1;SDS_P2;PMS_P1;PMS_P2;Temp;Humidity;BMP_temperature;BMP_pressure;BME280_temperature;BME280_humidity;BME280_pressure;Samples;Min_cycle;Max_cycle;Signal;HPM_P1;HPM_P2
2021/11/16 00:02:15;;;;;;;41.10;18.88;;;;;;;6.55;92.46;99291.94;5055492;28;20037;-69
2021/11/16 00:04:41;;;;;;;36.28;17.77;;;;;;;6.52;92.73;99286.88;5069925;28;20027;-69
2021/11/16 00:07:09;;;;;;;37.30;16.60;;;;;;;6.55;92.17;99290.09;5073810;28;20390;-69
2021/11/16 00:09:34;;;;;;;39.03;18.30;;;;;;;6.50;92.30;99278.16;5072756;28;20025;-69
2021/11/16 00:12:00;;;;;;;33.10;15.85;;;;;;;6.56;91.70;99294.44;5060014;28;20024;-68
2021/11/16 00:14:28;;;;;;;33.58;17.40;;;;;;;6.57;91.68;99284.53;5062785;28;20150;-69
2021/11/16 00:16:53;;;;;;;38.40;17.92;;;;;;;6.53;91.42;99283.19;5086748;28;20051;-69
2021/11/16 00:19:19;;;;;;;38.65;18.42;;;;;;;6.55;91.98;99289.25;5089126;28;20028;-69
2021/11/16 00:21:47;;;;;;;36.78;17.67;;;;;;;6.57;92.11;99295.28;5086699;28;20039;-69
2021/11/16 00:24:16;;;;;;;32.90;16.35;;;;;;;6.61;91.54;99288.56;5082369;28;20031;-69
2021/11/16 00:26:42;;;;;;;33.53;16.77;;;;;;;6.60;91.22;99289.56;5088345;28;20035;-69
2021/11/16 00:29:14;;;;;;;31.98;17.02;;;;;;;6.64;91.37;99293.63;5081328;28;20025;-69
2021/11/16 00:31:40;;;;;;;33.10;16.50;;;;;;;6.63;91.89;99297.31;5090305;28;20078;-69
2021/11/16 00:34:06;;;;;;;34.88;17.65;;;;;;;6.64;91.34;99304.38;5090004;28;20021;-69
2021/11/16 00:36:32;;;;;;;34.30;17.30;;;;;;;6.51;91.14;99280.66;5075916;28;20012;-69
2021/11/16 00:38:58;;;;;;;36.63;17.10;;;;;;;6.63;91.87;99304.53;5080675;28;20079;-69
2021/11/16 00:41:24;;;;;;;34.92;17.20;;;;;;;6.57;91.55;99304.19;5072232;28;20020;-69
2021/11/16 00:43:50;;;;;;;35.65;17.35;;;;;;;6.62;91.35;99303.69;5067352;28;20021;-69
2021/11/16 00:46:16;;;;;;;33.38;17.27;;;;;;;6.62;91.08;99303.69;5080028;28;20095;-69
2021/11/16 00:48:42;;;;;;;35.97;17.17;;;;;;;6.64;91.30;99307.06;5081034;28;20029;-69
2021/11/16 00:51:09;;;;;;;38.28;17.85;;;;;;;6.56;92.24;99288.22;5085715;28;20570;-69
2021/11/16 00:53:36;;;;;;;31.77;16.10;;;;;;;6.54;92.61;99301.00;5068835;28;20056;-69
2021/11/16 00:56:04;;;;;;;36.88;18.25;;;;;;;6.55;92.81;99302.69;5067108;28;20501;-69
2021/11/16 00:58:29;;;;;;;41.45;18.33;;;;;;;6.55;92.24;99298.16;5055943;28;20067;-69
2021/11/16 01:00:55;;;;;;;37.53;18.08;;;;;;;6.52;92.26;99305.69;5072312;28;20040;-69
2021/11/16 01:03:24;;;;;;;36.78;17.40;;;;;;;6.39;92.93;99286.50;5073209;28;20042;-69
2021/11/16 01:05:51;;;;;;;37.72;18.40;;;;;;;6.47;91.76;99306.19;5072685;28;20644;-69
2021/11/16 01:08:17;;;;;;;37.22;18.25;;;;;;;6.48;91.93;99297.13;5052894;28;20039;-69
2021/11/16 01:10:43;;;;;;;41.78;18.08;;;;;;;6.44;91.73;99286.84;5072844;28;20029;-69
2021/11/16 01:13:09;;;;;;;38.63;18.33;;;;;;;6.56;91.57;99299.81;5050415;28;20052;-69
2021/11/16 01:15:37;;;;;;;38.42;17.08;;;;;;;6.54;92.00;99298.31;5046739;28;20032;-69
2021/11/16 01:18:03;;;;;;;39.35;18.33;;;;;;;6.50;93.02;99302.34;5087930;28;20140;-69
2021/11/16 01:20:29;;;;;;;36.90;16.27;;;;;;;6.46;92.70;99300.97;5089012;28;20028;-69
2021/11/16 01:22:56;;;;;;;40.13;17.33;;;;;;;6.46;92.32;99315.25;5089033;28;20032;-69
2021/11/16 01:25:23;;;;;;;41.08;17.95;;;;;;;6.50;92.50;99303.19;5085328;28;20036;-69
2021/11/16 01:27:49;;;;;;;38.65;18.17;;;;;;;6.55;92.13;99308.91;5070685;28;20051;-69
2021/11/16 01:30:20;;;;;;;37.90;17.67;;;;;;;6.56;92.49;99302.50;5060939;28;20040;-69
2021/11/16 01:32:50;;;;;;;46.47;18.30;;;;;;;6.50;93.08;99305.88;5091434;28;20028;-69
2021/11/16 01:35:16;;;;;;;41.88;18.20;;;;;;;6.45;92.99;99300.16;5072219;28;20021;-69
2021/11/16 01:37:41;;;;;;;39.75;18.48;;;;;;;6.47;92.97;99299.97;5092637;28;20017;-69
2021/11/16 01:40:15;;;;;;;39.47;17.85;;;;;;;6.46;92.42;99299.13;5089892;28;20033;-70
2021/11/16 01:42:41;;;;;;;40.50;18.05;;;;;;;6.42;93.11;99291.56;5088370;28;20084;-69
2021/11/16 01:45:07;;;;;;;38.88;18.25;;;;;;;6.47;93.70;99306.19;5091331;28;20028;-70
2021/11/16 01:47:32;;;;;;;39.40;18.65;;;;;;;6.48;92.88;99307.88;5058847;28;20028;-69
2021/11/16 01:49:58;;;;;;;40.53;19.20;;;;;;;6.50;93.29;99305.03;5052808;28;20036;-69
2021/11/16 01:52:23;;;;;;;40.38;17.67;;;;;;;6.63;91.61;99291.09;5070973;28;20056;-69
2021/11/16 01:54:48;;;;;;;40.20;17.98;;;;;;;6.62;91.65;99298.31;5071774;28;20025;-69
2021/11/16 01:57:14;;;;;;;38.20;18.10;;;;;;;6.61;91.91;99301.19;5070623;28;20035;-69
2021/11/16 01:59:39;;;;;;;39.53;17.75;;;;;;;6.50;91.75;99294.28;5060382;28;20046;-69
2021/11/16 02:02:05;;;;;;;38.65;16.17;;;;;;;6.54;92.00;99301.81;5055575;28;20107;-69
2021/11/16 02:04:31;;;;;;;44.53;18.52;;;;;;;6.47;92.98;99291.91;5059107;28;20021;-69
2021/11/16 02:06:57;;;;;;;41.58;19.08;;;;;;;6.47;93.26;99302.66;5074843;28;20036;-69
2021/11/16 02:09:22;;;;;;;43.65;19.27;;;;;;;6.39;92.71;99297.25;5071548;28;20138;-69
2021/11/16 02:11:47;;;;;;;42.13;19.02;;;;;;;6.36;92.71;99301.94;5061089;28;20106;-69
2021/11/16 02:14:15;;;;;;;45.88;18.67;;;;;;;6.36;92.97;99290.38;5062033;28;20425;-69
2021/11/16 02:16:42;;;;;;;35.33;16.38;;;;;;;6.35;93.07;99300.28;5071893;28;20020;-69
2021/11/16 02:19:11;;;;;;;43.72;18.33;;;;;;;6.40;93.73;99285.53;5065179;28;20029;-69
2021/11/16 02:21:38;;;;;;;38.80;18.48;;;;;;;6.30;93.29;99270.38;5074645;28;20116;-69
2021/11/16 02:24:05;;;;;;;42.13;18.85;;;;;;;6.41;92.85;99285.34;5072871;28;20044;-69
2021/11/16 02:26:30;;;;;;;42.30;19.15;;;;;;;6.34;93.42;99278.94;5062067;28;20093;-69
2021/11/16 02:28:56;;;;;;;42.85;18.85;;;;;;;6.31;93.80;99279.28;5065849;28;20486;-69
2021/11/16 02:31:21;;;;;;;37.90;18.42;;;;;;;6.33;94.46;99270.03;5074285;28;20104;-69
2021/11/16 02:33:47;;;;;;;40.95;19.02;;;;;;;6.30;94.83;99266.84;5074174;28;20020;-69
2021/11/16 02:36:13;;;;;;;40.92;17.33;;;;;;;6.33;95.22;99269.19;5067167;28;20035;-69
2021/11/16 02:38:40;;;;;;;43.00;19.10;;;;;;;6.36;95.48;99272.38;5073174;28;20016;-69
2021/11/16 02:41:07;;;;;;;39.55;18.77;;;;;;;6.33;94.87;99263.81;5056045;28;20059;-69
2021/11/16 02:43:35;;;;;;;41.03;19.08;;;;;;;6.33;95.17;99269.19;5056619;28;20078;-69
2021/11/16 02:46:02;;;;;;;37.75;19.15;;;;;;;6.27;95.13;99262.66;5058410;28;20028;-69
2021/11/16 02:48:28;;;;;;;41.83;19.25;;;;;;;6.28;95.04;99269.69;5073242;28;20517;-69
2021/11/16 02:51:00;;;;;;;47.60;19.80;;;;;;;6.22;95.09;99264.16;5069897;28;20111;-69
2021/11/16 02:53:25;;;;;;;45.95;19.45;;;;;;;6.26;95.11;99260.97;5061319;28;20390;-69
2021/11/16 02:55:51;;;;;;;46.85;21.17;;;;;;;6.23;95.00;99261.28;5092344;28;20024;-69
2021/11/16 02:58:19;;;;;;;44.97;19.75;;;;;;;6.22;95.07;99267.66;5086225;28;20039;-69
2021/11/16 03:00:49;;;;;;;43.25;19.75;;;;;;;6.22;94.60;99264.97;5063934;28;20496;-69
2021/11/16 03:03:15;;;;;;;47.20;20.80;;;;;;;6.26;95.08;99265.47;5071906;28;20032;-70
2021/11/16 03:05:41;;;;;;;42.08;19.27;;;;;;;6.31;94.45;99253.25;5073393;28;20021;-71
2021/11/16 03:08:33;;;;;;;45.83;20.27;;;;;;;6.38;94.49;99261.50;5073424;28;20028;-70
2021/11/16 03:11:04;;;;;;;44.60;18.23;;;;;;;6.36;94.83;99261.63;5065345;28;20098;-70
2021/11/16 03:13:36;;;;;;;40.38;18.77;;;;;;;6.32;95.45;99270.22;5044948;28;20027;-70
2021/11/16 03:16:02;;;;;;;45.83;18.98;;;;;;;6.25;95.72;99251.22;5064405;28;20035;-71
2021/11/16 03:18:28;;;;;;;47.75;19.70;;;;;;;6.22;96.49;99253.41;5072442;28;20024;-70
2021/11/16 03:20:53;;;;;;;40.30;19.33;;;;;;;6.23;95.69;99263.13;5068284;28;20123;-70
2021/11/16 03:23:22;;;;;;;47.33;20.08;;;;;;;6.06;95.69;99238.91;5069412;28;20035;-70
2021/11/16 03:28:16;;;;;;;46.60;19.33;;;;;;;6.28;95.35;99258.09;5069944;28;20068;-69
2021/11/16 03:30:43;;;;;;;44.85;19.92;;;;;;;6.19;95.57;99241.13;5068309;28;20028;-70
2021/11/16 03:33:09;;;;;;;45.72;18.98;;;;;;;6.30;94.91;99253.41;5054773;28;20112;-70
2021/11/16 03:35:35;;;;;;;45.42;18.98;;;;;;;6.30;95.48;99245.34;5059429;28;20494;-71
2021/11/16 03:38:02;;;;;;;43.20;19.20;;;;;;;6.28;95.61;99250.88;5053218;28;20108;-73
2021/11/16 03:40:30;;;;;;;42.70;19.38;;;;;;;6.23;95.60;99238.94;5057803;28;20032;-72
2021/11/16 03:42:55;;;;;;;46.97;19.17;;;;;;;6.30;95.83;99251.56;5073413;28;20020;-70
2021/11/16 03:45:25;;;;;;;39.45;17.80;;;;;;;6.29;96.05;99249.91;5072466;28;20462;-71
2021/11/16 03:47:52;;;;;;;46.17;19.27;;;;;;;6.27;96.33;99241.16;5071035;28;20050;-70
2021/11/16 03:50:20;;;;;;;43.70;19.77;;;;;;;6.24;96.18;99241.47;5071620;28;20039;-70
2021/11/16 03:52:49;;;;;;;46.00;18.02;;;;;;;6.22;96.51;99242.66;5073155;28;20020;-70
2021/11/16 03:55:16;;;;;;;45.92;19.08;;;;;;;6.17;96.28;99242.31;5073256;28;20029;-70
2021/11/16 03:57:41;;;;;;;42.92;18.42;;;;;;;6.19;95.46;99232.25;5072769;28;20054;-70
2021/11/16 04:00:16;;;;;;;44.63;19.33;;;;;;;6.14;95.46;99238.09;5067880;28;20066;-70
2021/11/16 04:02:41;;;;;;;44.00;18.98;;;;;;;6.14;95.75;99243.47;5073055;28;20052;-71
2021/11/16 04:05:07;;;;;;;47.13;19.00;;;;;;;6.13;96.66;99247.16;5072927;28;20060;-70
2021/11/16 04:07:33;;;;;;;42.70;18.55;;;;;;;6.18;96.47;99243.97;5072369;28;20021;-70
2021/11/16 04:09:58;;;;;;;44.00;19.15;;;;;;;6.20;96.50;99239.28;5071763;28;20031;-70
2021/11/16 04:12:24;;;;;;;37.53;18.02;;;;;;;6.18;96.15;99239.44;5051873;28;20032;-70
2021/11/16 04:14:50;;;;;;;45.88;19.02;;;;;;;6.08;95.97;99228.03;5070119;28;20029;-70
2021/11/16 04:17:16;;;;;;;46.78;20.17;;;;;;;6.08;96.43;99234.22;5061668;28;20028;-70
2021/11/16 04:19:43;;;;;;;47.10;19.52;;;;;;;6.01;97.43;99227.81;5071879;28;20031;-69
2021/11/16 04:22:08;;;;;;;44.60;19.40;;;;;;;6.00;97.61;99228.84;5072631;28;20501;-70
2021/11/16 04:24:34;;;;;;;46.85;20.50;;;;;;;5.86;97.84;99216.00;5058921;28;20029;-70
2021/11/16 04:26:59;;;;;;;51.38;20.58;;;;;;;5.87;98.41;99237.31;5072208;28;20020;-70
2021/11/16 04:29:25;;;;;;;48.00;19.55;;;;;;;5.93;98.64;99238.50;5068068;28;20032;-70
2021/11/16 04:31:51;;;;;;;53.65;20.33;;;;;;;5.75;98.88;99216.28;5072189;28;20451;-70
2021/11/16 04:34:16;;;;;;;47.88;19.92;;;;;;;5.79;99.22;99223.00;5071361;28;20025;-70
2021/11/16 04:36:43;;;;;;;46.53;19.50;;;;;;;5.81;99.28;99232.59;5055039;28;20024;-70
2021/11/16 04:39:09;;;;;;;47.72;20.55;;;;;;;5.74;98.90;99204.72;5067033;28;20025;-70
2021/11/16 04:41:36;;;;;;;46.80;19.30;;;;;;;5.82;99.10;99214.66;5069530;28;20024;-70
2021/11/16 04:44:04;;;;;;;53.15;21.05;;;;;;;5.86;99.23;99224.03;5065198;28;20028;-70
2021/11/16 04:46:29;;;;;;;45.40;20.50;;;;;;;5.85;99.40;99220.53;5060415;28;20428;-73
2021/11/16 05:04:42;;;;;;;45.13;19.38;;;;;;;5.79;100.00;99233.75;5053088;28;20710;-76
2021/11/16 05:07:12;;;;;;;50.25;20.67;;;;;;;5.78;100.00;99245.50;5066866;28;20029;-72
2021/11/16 05:09:38;;;;;;;47.05;19.60;;;;;;;5.65;100.00;99237.88;5053522;28;20527;-74
2021/11/16 05:12:04;;;;;;;55.83;21.60;;;;;;;5.62;100.00;99251.63;5062961;28;20032;-75
2021/11/16 05:14:29;;;;;;;53.80;21.30;;;;;;;5.58;100.00;99244.91;5066769;28;20474;-75
2021/11/16 05:16:55;;;;;;;51.60;19.30;;;;;;;5.57;100.00;99237.84;5072095;28;20027;-77
2021/11/16 05:19:20;;;;;;;50.40;20.08;;;;;;;5.53;100.00;99228.44;5069410;28;20020;-75
2021/11/16 05:21:45;;;;;;;49.53;20.45;;;;;;;5.56;100.00;99230.81;5071360;28;20035;-73
2021/11/16 05:24:11;;;;;;;52.70;18.75;;;;;;;5.68;100.00;99240.25;5069985;28;20048;-75
2021/11/16 05:26:36;;;;;;;50.35;19.85;;;;;;;5.57;100.00;99224.44;5054602;28;20420;-74
2021/11/16 05:29:02;;;;;;;51.45;20.63;;;;;;;5.56;100.00;99233.50;5061613;28;20025;-75
2021/11/16 05:31:27;;;;;;;53.15;21.70;;;;;;;5.47;100.00;99229.91;5050600;28;20021;-75
2021/11/16 05:33:54;;;;;;;48.72;19.63;;;;;;;5.60;100.00;99246.41;5040025;28;20052;-76
2021/11/16 05:36:21;;;;;;;52.13;20.65;;;;;;;5.43;100.00;99244.69;5054094;28;20049;-76
2021/11/16 05:38:48;;;;;;;50.53;19.92;;;;;;;5.44;100.00;99231.06;5072789;28;20031;-75
2021/11/16 05:41:14;;;;;;;51.72;19.55;;;;;;;5.53;100.00;99253.44;5079976;28;20085;-75
2021/11/16 05:43:42;;;;;;;49.58;19.08;;;;;;;5.56;100.00;99246.94;5096187;28;20470;-75
2021/11/16 05:46:08;;;;;;;45.00;18.50;;;;;;;5.52;100.00;99246.38;5088070;28;20021;-75
2021/11/16 05:48:40;;;;;;;56.95;20.42;;;;;;;5.60;100.00;99254.47;5073670;28;20048;-74
2021/11/16 05:51:07;;;;;;;51.58;19.98;;;;;;;5.68;100.00;99256.34;5075419;28;20016;-75
2021/11/16 05:53:34;;;;;;;49.78;19.60;;;;;;;5.61;100.00;99247.28;5075335;28;20551;-75
2021/11/16 05:56:00;;;;;;;44.80;18.05;;;;;;;5.69;100.00;99260.75;5083025;28;20028;-75
2021/11/16 05:58:26;;;;;;;52.80;20.83;;;;;;;5.71;100.00;99258.72;5068591;28;20112;-75
2021/11/16 06:00:51;;;;;;;43.20;18.67;;;;;;;5.63;100.00;99246.13;5075407;28;20133;-78
2021/11/16 06:03:17;;;;;;;46.47;19.02;;;;;;;5.76;100.00;99253.69;5075412;28;20467;-79
2021/11/16 06:05:43;;;;;;;44.75;18.70;;;;;;;5.73;100.00;99262.09;5086563;28;20389;-74
2021/11/16 06:08:28;;;;;;;44.35;18.45;;;;;;;5.77;100.00;99259.94;5095710;28;20028;-78
2021/11/16 06:10:56;;;;;;;45.92;17.90;;;;;;;5.71;100.00;99243.47;5063030;28;20028;-76
2021/11/16 06:13:22;;;;;;;48.53;19.35;;;;;;;5.55;100.00;99218.38;5059352;28;20439;-76
2021/11/16 06:15:49;;;;;;;49.03;20.35;;;;;;;5.65;100.00;99240.56;5097743;28;20035;-75
2021/11/16 06:18:19;;;;;;;50.40;20.15;;;;;;;5.71;100.00;99253.34;5084396;28;20024;-74
2021/11/16 06:20:46;;;;;;;47.22;18.95;;;;;;;5.73;100.00;99259.41;5095204;28;20024;-78
2021/11/16 06:23:13;;;;;;;47.65;18.67;;;;;;;5.73;100.00;99256.72;5083727;28;20020;-73
2021/11/16 06:25:39;;;;;;;46.00;18.23;;;;;;;5.74;100.00;99261.09;5076709;28;20025;-73
2021/11/16 06:28:05;;;;;;;53.97;20.05;;;;;;;5.66;100.00;99253.84;5082381;28;20054;-75
2021/11/16 06:30:30;;;;;;;44.17;17.95;;;;;;;5.75;100.00;99268.13;5074430;28;20464;-73
2021/11/16 06:33:04;;;;;;;42.40;18.48;;;;;;;5.67;100.00;99263.56;5091969;28;20051;-71
2021/11/16 06:35:29;;;;;;;45.55;18.75;;;;;;;5.57;100.00;99256.66;5092483;28;20036;-72
2021/11/16 06:37:55;;;;;;;46.75;18.42;;;;;;;5.66;100.00;99278.00;5079303;28;20020;-76
2021/11/16 06:40:21;;;;;;;51.42;18.95;;;;;;;5.66;100.00;99277.19;5088226;28;20032;-74
2021/11/16 06:42:47;;;;;;;47.55;19.52;;;;;;;5.57;100.00;99270.91;5086497;28;20037;-74
2021/11/16 06:45:13;;;;;;;38.05;17.58;;;;;;;5.61;100.00;99274.97;5060111;28;20017;-74
2021/11/16 06:47:38;;;;;;;42.78;17.92;;;;;;;5.74;100.00;99287.94;5046325;28;20036;-75
2021/11/16 06:50:05;;;;;;;44.13;18.67;;;;;;;5.76;100.00;99277.88;5077472;28;20397;-75
2021/11/16 06:52:33;;;;;;;47.83;17.85;;;;;;;5.65;100.00;99275.47;5073315;28;20414;-76
2021/11/16 06:54:59;;;;;;;43.10;17.67;;;;;;;5.64;100.00;99276.50;5056043;28;20021;-74
2021/11/16 06:57:27;;;;;;;43.00;17.67;;;;;;;5.65;100.00;99280.84;5074705;28;20028;-72
2021/11/16 06:59:53;;;;;;;45.63;16.75;;;;;;;5.67;100.00;99293.09;5069653;28;20274;-73
2021/11/16 07:02:26;;;;;;;46.28;17.58;;;;;;;5.72;100.00;99300.69;5069260;28;20028;-72
2021/11/16 07:04:51;;;;;;;43.50;17.85;;;;;;;5.52;100.00;99291.19;5075744;28;20025;-76
2021/11/16 07:07:17;;;;;;;47.90;18.20;;;;;;;5.46;100.00;99277.38;5057540;28;20529;-74
2021/11/16 07:09:43;;;;;;;47.88;18.08;;;;;;;5.61;100.00;99309.03;5071404;28;20028;-74
2021/11/16 07:12:15;;;;;;;47.28;18.05;;;;;;;5.49;100.00;99290.47;5083515;28;20020;-76
2021/11/16 07:14:40;;;;;;;49.08;18.15;;;;;;;5.45;100.00;99283.78;5054730;28;20051;-73
2021/11/16 07:17:11;;;;;;;45.80;17.23;;;;;;;5.49;100.00;99306.59;5063600;28;20090;-71
2021/11/16 07:19:43;;;;;;;41.25;17.77;;;;;;;5.55;100.00;99302.41;5052197;28;20024;-73
2021/11/16 07:22:20;;;;;;;46.95;17.25;;;;;;;5.57;100.00;99296.91;5070368;28;20017;-73
2021/11/16 07:24:48;;;;;;;45.90;17.25;;;;;;;5.61;100.00;99296.44;5035833;28;20450;-75
2021/11/16 07:27:22;;;;;;;50.55;18.38;;;;;;;5.71;100.00;99302.53;5057395;28;20123;-71
2021/11/16 07:29:53;;;;;;;41.25;17.00;;;;;;;5.78;100.00;99300.03;5073126;28;20024;-71
2021/11/16 07:32:22;;;;;;;41.63;17.52;;;;;;;5.88;100.00;99314.19;5071283;28;20028;-73
2021/11/16 07:34:50;;;;;;;48.63;18.15;;;;;;;5.76;100.00;99311.94;5059418;28;20401;-72
2021/11/16 07:37:18;;;;;;;43.03;17.38;;;;;;;5.68;100.00;99318.09;5071593;28;20102;-71
2021/11/16 07:39:46;;;;;;;43.53;18.15;;;;;;;5.59;100.00;99314.53;5072796;28;20029;-72
2021/11/16 07:42:12;;;;;;;46.92;18.75;;;;;;;5.65;100.00;99321.09;5073239;28;20122;-72
2021/11/16 07:44:37;;;;;;;48.55;18.92;;;;;;;5.59;100.00;99319.06;5070808;28;20122;-73
2021/11/16 07:47:05;;;;;;;46.92;18.23;;;;;;;5.63;100.00;99328.47;5072897;28;20031;-72
2021/11/16 07:49:31;;;;;;;47.28;17.73;;;;;;;5.53;100.00;99320.53;5067745;28;20380;-73
2021/11/16 07:51:56;;;;;;;43.42;17.85;;;;;;;5.61;100.00;99327.81;5071190;28;20016;-73
2021/11/16 07:54:24;;;;;;;50.20;17.70;;;;;;;5.55;100.00;99312.31;5072422;28;20024;-73
2021/11/16 07:56:49;;;;;;;44.88;17.70;;;;;;;5.55;100.00;99320.38;5072926;28;20478;-74
2021/11/16 07:59:18;;;;;;;42.45;17.45;;;;;;;5.48;100.00;99304.91;5054901;28;20078;-73
2021/11/16 08:02:06;;;;;;;42.83;17.50;;;;;;;5.68;100.00;99320.78;5073599;28;20056;-72
2021/11/16 08:04:47;;;;;;;38.03;15.77;;;;;;;5.77;100.00;99335.13;5070981;28;20195;-73
2021/11/16 08:07:33;;;;;;;40.53;15.77;;;;;;;5.81;100.00;99331.94;5060152;28;20428;-75
2021/11/16 08:10:05;;;;;;;41.92;16.42;;;;;;;5.82;100.00;99338.16;5073474;28;20032;-71
2021/11/16 08:12:39;;;;;;;41.72;17.48;;;;;;;5.84;100.00;99320.91;5056649;28;20027;-72
2021/11/16 08:15:11;;;;;;;42.47;16.52;;;;;;;5.73;100.00;99323.84;5073345;28;20028;-72
2021/11/16 08:17:38;;;;;;;41.00;16.48;;;;;;;5.73;100.00;99315.78;5073661;28;20067;-77
2021/11/16 08:20:10;;;;;;;43.42;16.15;;;;;;;5.77;100.00;99329.75;5061140;28;20029;-74
2021/11/16 08:22:36;;;;;;;41.17;15.80;;;;;;;5.83;100.00;99327.25;5053051;28;20541;-73
2021/11/16 08:25:04;;;;;;;44.50;16.50;;;;;;;5.60;100.00;99286.69;5035796;28;20064;-75
2021/11/16 08:27:39;;;;;;;40.67;16.27;;;;;;;5.76;100.00;99317.31;5039201;28;20465;-72
2021/11/16 08:30:19;;;;;;;40.17;16.35;;;;;;;5.64;100.00;99320.28;5056665;28;20417;-75
2021/11/16 08:32:49;;;;;;;38.38;15.82;;;;;;;5.67;100.00;99329.84;5069519;28;20033;-74
2021/11/16 08:35:19;;;;;;;42.35;17.60;;;;;;;5.64;100.00;99328.31;5072391;28;20078;-75
2021/11/16 08:37:45;;;;;;;43.10;16.05;;;;;;;5.67;100.00;99319.94;5072399;28;20012;-74
2021/11/16 08:40:15;;;;;;;38.50;15.95;;;;;;;5.60;100.00;99313.53;5065134;28;20028;-76
2021/11/16 08:42:43;;;;;;;39.10;16.17;;;;;;;5.77;100.00;99340.47;5069678;28;20024;-73
2021/11/16 08:45:12;;;;;;;40.50;16.00;;;;;;;5.67;100.00;99341.41;5053853;28;20020;-73
2021/11/16 08:47:45;;;;;;;44.70;16.27;;;;;;;5.63;100.00;99320.41;5056069;28;20052;-74
2021/11/16 08:50:20;;;;;;;43.88;17.10;;;;;;;5.67;100.00;99337.91;5036582;28;20406;-75
2021/11/16 08:52:46;;;;;;;39.08;15.95;;;;;;;5.75;100.00;99343.31;5059991;28;20027;-74
2021/11/16 08:55:18;;;;;;;40.13;16.00;;;;;;;5.63;100.00;99333.84;5057472;28;20033;-75
2021/11/16 08:57:46;;;;;;;46.50;16.67;;;;;;;5.73;100.00;99337.25;5071987;28;20478;-73
2021/11/16 09:00:40;;;;;;;43.03;17.17;;;;;;;5.78;100.00;99342.16;5054300;28;20064;-73
2021/11/16 09:03:07;;;;;;;37.28;14.98;;;;;;;5.91;100.00;99345.25;5015088;28;20040;-71
2021/11/16 09:05:36;;;;;;;39.03;15.60;;;;;;;5.81;100.00;99350.72;5069214;28;20538;-71
2021/11/16 09:08:03;;;;;;;35.97;14.77;;;;;;;5.78;100.00;99350.22;5069031;28;20036;-72
2021/11/16 09:10:37;;;;;;;40.08;15.60;;;;;;;5.67;100.00;99336.06;5070663;28;20375;-75
2021/11/16 09:13:05;;;;;;;34.38;15.02;;;;;;;5.76;100.00;99328.88;5076608;28;20024;-77
2021/11/16 09:15:44;;;;;;;39.60;16.30;;;;;;;5.87;100.00;99346.59;5054843;28;20065;-67
2021/11/16 09:18:20;;;;;;;38.17;15.98;;;;;;;5.79;100.00;99343.81;5056235;28;20017;-71
2021/11/16 09:21:11;;;;;;;40.78;15.65;;;;;;;5.77;100.00;99338.63;5074810;28;20037;-70
2021/11/16 09:23:44;;;;;;;36.42;15.63;;;;;;;5.89;100.00;99333.81;5074636;28;20078;-70
2021/11/16 09:29:00;;;;;;;36.00;15.07;;;;;;;6.14;100.00;99340.19;5055798;28;20067;-72
2021/11/16 09:31:31;;;;;;;31.92;15.02;;;;;;;6.18;100.00;99325.41;5064041;28;20497;-73
2021/11/16 09:34:00;;;;;;;32.47;14.07;;;;;;;6.29;99.61;99326.97;5061354;28;20474;-72
2021/11/16 09:36:28;;;;;;;32.50;14.48;;;;;;;6.34;99.97;99330.84;5058568;28;20030;-70
2021/11/16 09:38:58;;;;;;;35.05;14.90;;;;;;;6.33;98.09;99321.09;5069573;28;20108;-74
2021/11/16 09:41:38;;;;;;;32.33;14.63;;;;;;;6.45;97.03;99331.56;5075327;28;20537;-73
2021/11/16 09:44:16;;;;;;;33.03;13.98;;;;;;;6.49;96.47;99322.97;5069821;28;20387;-73
2021/11/16 09:46:46;;;;;;;29.90;12.45;;;;;;;6.46;95.02;99327.84;5067107;28;20025;-75
2021/11/16 09:49:12;;;;;;;;;;;;;;;6.45;94.48;99336.94;5056167;28;20114;-75
2021/11/16 09:51:41;;;;;;;32.38;12.60;;;;;;;6.58;94.35;99332.75;5068997;28;19916;-74
2021/11/16 09:54:09;;;;;;;32.17;12.97;;;;;;;6.53;95.09;99332.41;5052584;28;20028;-73
2021/11/16 09:56:35;;;;;;;28.63;12.88;;;;;;;6.54;93.50;99317.13;5057634;28;20041;-74
2021/11/16 09:59:01;;;;;;;29.48;13.27;;;;;;;6.55;91.63;99316.13;5075061;28;20025;-75
2021/11/16 10:01:35;;;;;;;32.03;13.13;;;;;;;6.46;92.68;99330.53;5075597;28;20094;-76
2021/11/16 10:04:24;;;;;;;27.95;12.40;;;;;;;6.49;93.14;99332.91;5061481;28;20134;-77
2021/11/16 10:06:50;;;;;;;27.88;12.05;;;;;;;6.51;94.01;99329.03;5071720;28;20024;-73
2021/11/16 10:09:15;;;;;;;29.38;12.48;;;;;;;6.49;92.63;99330.22;5060811;28;20161;-73
2021/11/16 10:11:43;;;;;;;29.05;11.93;;;;;;;6.57;92.21;99327.53;5073717;28;20028;-74
2021/11/16 10:14:15;;;;;;;31.77;12.57;;;;;;;6.71;93.10;99324.22;5074990;28;20070;-74
2021/11/16 10:16:42;;;;;;;27.85;12.75;;;;;;;6.88;90.35;99321.53;5061775;28;20497;-77
2021/11/16 10:19:08;;;;;;;27.30;12.48;;;;;;;6.86;90.12;99319.00;5074395;28;20028;-75
2021/11/16 10:21:34;;;;;;;28.25;13.40;;;;;;;6.55;90.08;99321.50;5074592;28;20074;-76
2021/11/16 10:24:00;;;;;;;29.92;13.02;;;;;;;6.70;90.71;99314.47;5059790;28;20494;-72
2021/11/16 10:26:31;;;;;;;25.35;11.43;;;;;;;6.91;90.38;99307.75;5074500;28;20416;-72
2021/11/16 10:28:57;;;;;;;28.67;12.18;;;;;;;6.93;89.35;99293.13;5072736;28;20020;-73
2021/11/16 10:31:31;;;;;;;27.98;12.55;;;;;;;6.77;90.43;99293.97;5074325;28;20025;-73
2021/11/16 10:33:58;;;;;;;27.20;11.88;;;;;;;6.87;89.25;99309.94;5060973;28;20501;-74
2021/11/16 10:36:23;;;;;;;25.27;12.43;;;;;;;6.76;89.70;99289.59;5073604;28;20548;-74
2021/11/16 10:38:53;;;;;;;30.00;13.10;;;;;;;7.02;89.45;99293.97;5061252;28;20103;-76
2021/11/16 10:41:22;;;;;;;26.60;11.57;;;;;;;7.15;87.61;99286.25;5073116;28;20024;-75
2021/11/16 10:43:53;;;;;;;;;;;;;;;7.12;86.46;99286.56;5072160;28;20068;-76
2021/11/16 10:46:20;;;;;;;27.83;12.23;;;;;;;7.12;84.97;99300.00;5076455;28;20003;-75
2021/11/16 10:48:48;;;;;;;28.20;12.35;;;;;;;6.92;86.05;99285.25;5074857;28;20028;-76
2021/11/16 10:51:14;;;;;;;28.98;12.80;;;;;;;6.91;86.93;99286.25;5059427;28;20024;-77
2021/11/16 10:53:47;;;;;;;26.58;11.90;;;;;;;6.86;86.72;99293.97;5075349;28;20020;-76
2021/11/16 10:56:17;;;;;;;28.17;12.07;;;;;;;6.72;88.16;99280.19;5067089;28;20099;-76
2021/11/16 10:58:43;;;;;;;28.08;12.70;;;;;;;6.86;87.35;99277.81;5076125;28;20111;-75
2021/11/16 11:01:11;;;;;;;27.40;13.23;;;;;;;6.84;88.21;99290.59;5067717;28;20102;-75
2021/11/16 11:03:55;;;;;;;36.92;13.75;;;;;;;6.97;88.40;99296.34;5057196;28;20016;-75
2021/11/16 11:06:26;;;;;;;29.60;12.43;;;;;;;6.95;87.56;99284.91;5050749;28;20046;-77
2021/11/16 11:09:01;;;;;;;32.30;12.75;;;;;;;6.63;89.23;99288.41;5036911;28;20037;-77
2021/11/16 11:11:42;;;;;;;25.75;12.38;;;;;;;6.82;89.07;99295.31;5038506;28;20025;-77
2021/11/16 11:14:12;;;;;;;29.92;12.88;;;;;;;6.74;89.69;99296.16;5068558;28;20386;-73
2021/11/16 11:16:43;;;;;;;28.58;12.88;;;;;;;6.77;88.78;99296.66;5054107;28;20112;-72
2021/11/16 11:19:20;;;;;;;27.08;11.35;;;;;;;6.62;89.45;99290.25;5053756;28;20521;-72
2021/11/16 11:21:56;;;;;;;29.17;13.23;;;;;;;6.68;89.11;99284.22;5053989;28;20028;-73
2021/11/16 11:24:28;;;;;;;30.38;12.77;;;;;;;6.67;89.79;99282.53;5072658;28;20028;-73
2021/11/16 11:27:01;;;;;;;32.30;12.68;;;;;;;6.63;89.41;99277.63;5073697;28;20024;-73
2021/11/16 11:29:45;;;;;;;28.70;11.82;;;;;;;6.65;89.26;99265.72;5067103;28;20356;-74
2021/11/16 11:32:20;;;;;;;31.48;12.85;;;;;;;6.52;89.15;99260.84;5050262;28;20057;-75
2021/11/16 11:34:51;;;;;;;30.63;12.18;;;;;;;6.68;88.79;99294.97;5039245;28;20117;-76
2021/11/16 11:37:25;;;;;;;31.85;12.90;;;;;;;6.61;89.41;99291.25;5060395;28;20021;-73
2021/11/16 11:40:04;;;;;;;28.13;11.80;;;;;;;6.41;90.37;99268.38;5053267;28;20017;-75
2021/11/16 11:42:32;;;;;;;24.40;11.27;;;;;;;6.57;91.08;99279.97;5060524;28;20038;-74
2021/11/16 11:45:09;;;;;;;26.20;11.48;;;;;;;6.62;90.44;99284.88;5073515;28;20500;-75
2021/11/16 11:47:39;;;;;;;25.25;11.05;;;;;;;6.55;89.73;99273.97;5068308;28;20056;-74
2021/11/16 11:50:30;;;;;;;29.60;13.18;;;;;;;6.49;90.44;99276.44;5053265;28;20017;-74